Login
Access
Login with your mtb-forum.it nickname and password.


You do not have an account? Sign up here for free

leonardo65

Last training unit 16/06/2019
1
Followers
48 493 Km
itineraries
376 635 m
of total vertical gain
1980
hours of riding
24.68 Km/h
average speed
145
average HR


16/06/2019 Show to everybody Pedale Bizantino 127.26 Km 1290 m 05:40:42 22.41 Km\h Wilier GTR Team
15/06/2019 Show to everybody Giro mattutino 62.9 Km 185 m 02:20:57 26.78 Km\h Wilier GTR Team
09/06/2019 Show to everybody M.F. Medicina (perc. lungo + trasf.) 115.49 Km 995 m 04:56:53 23.34 Km\h Wilier GTR Team
08/06/2019 Show to everybody Raduno Bagnacavallo 69.74 Km 282 m 02:46:38 25.11 Km\h Wilier GTR Team
02/06/2019 Show to everybody Tozzona Imola (perc. medio e trasf.) 139.35 Km 1378 m 05:57:05 23.41 Km\h Wilier GTR Team
01/06/2019 Show to everybody Raduno Cefla 62.33 Km 343 m 02:31:57 24.61 Km\h Wilier GTR Team
18/05/2019 Show to everybody Raduno Lavezzola 37.43 Km 8 m 01:23:05 27.03 Km\h Wilier GTR Team
12/05/2019 Show to everybody La E.Baldini (percorso medio) 104.74 Km 1126 m 04:42:01 22.28 Km\h Wilier GTR Team
11/05/2019 Show to everybody Giro mattutino 37.66 Km 79 m 01:25:29 26.43 Km\h Wilier GTR Team
05/05/2019 Show to everybody Giro di Romagna 104.95 Km 797 m 04:12:21 24.95 Km\h Wilier IzoardXP
04/05/2019 Show to everybody Raduno Bagnacavallo 65.03 Km 259 m 02:34:01 25.33 Km\h Wilier IzoardXP
01/05/2019 Show to everybody Raduno S.Andrea-M.Casale-Monticino 95.12 Km 877 m 04:06:25 23.16 Km\h Wilier IzoardXP
28/04/2019 Show to everybody GF Valle Senio (perc. medio) 98.89 Km 1451 m 04:31:59 21.82 Km\h Wilier IzoardXP
27/04/2019 Show to everybody Raduno Sacmi 67.71 Km 347 m 02:41:17 25.19 Km\h Wilier GTR Team
25/04/2019 Show to everybody Raduno Marzeno-Tredozio 113.31 Km 561 m 04:05:39 27.68 Km\h Wilier GTR Team
22/04/2019 Show to everybody Raduno Granarolo 89.69 Km 568 m 03:39:00 24.57 Km\h Wilier IzoardXP
14/04/2019 Show to everybody Raduno Imola 64.54 Km 179 m 02:33:00 25.31 Km\h Wilier IzoardXP
13/04/2019 Show to everybody Cotignolese (perc. medio) 98.23 Km 690 m 04:12:29 23.34 Km\h Wilier IzoardXP
07/04/2019 Show to everybody Avis Faenza (perc. medio) 89.28 Km 1318 m 03:55:22 22.76 Km\h Wilier IzoardXP
06/04/2019 Show to everybody Raduno Imola 45.98 Km 354 m 01:59:43 23.05 Km\h Wilier IzoardXP
31/03/2019 Show to everybody ASD Osteria Ravenna (perc. medio) 136.04 Km 698 m 05:22:45 25.29 Km\h Wilier IzoardXP
30/03/2019 Show to everybody Dosi Imola (perc. medio) 83.91 Km 663 m 03:35:17 23.39 Km\h Wilier GTR Team
24/03/2019 Show to everybody MF Sambi Ravenna 105.6 Km 673 m 04:21:32 24.23 Km\h Wilier IzoardXP
23/03/2019 Show to everybody Giro mattutino 91.54 Km 525 m 03:31:55 25.92 Km\h Wilier GTR Team
17/03/2019 Show to everybody Giro mattutino 84.09 Km 709 m 03:28:48 24.17 Km\h Wilier IzoardXP
16/03/2019 Show to everybody Giro mattutino 55.8 Km 122 m 02:14:34 24.88 Km\h Wilier IzoardXP
10/03/2019 Show to everybody Giro mattutino 50.52 Km 326 m 02:02:47 24.69 Km\h Wilier GTR Team
09/03/2019 Show to everybody Raduno Atl. 85 Faenza-Zattaglia-M.Albano 92.33 Km 757 m 03:48:31 24.24 Km\h Wilier GTR Team
03/03/2019 Show to everybody Raduno Reda-Modigliana-Brisighella 104.15 Km 696 m 04:22:16 23.83 Km\h Wilier IzoardXP
02/03/2019 Show to everybody Raduno Dozza 62.48 Km 453 m 02:43:04 22.99 Km\h Wilier IzoardXP
24/02/2019 Show to everybody Giro mattutino 64.29 Km 325 m 02:39:22 24.21 Km\h Wilier IzoardXP
23/02/2019 Show to everybody Giro mattutino 54.48 Km 214 m 02:18:44 23.56 Km\h Wilier IzoardXP
17/02/2019 Show to everybody Giro mattutino 47.21 Km 82 m 01:52:24 25.2 Km\h Wilier IzoardXP
16/02/2019 Show to everybody Giro mattutino 39.47 Km 67 m 01:36:35 24.52 Km\h Wilier IzoardXP
10/02/2019 Show to everybody Raduno Uisp Faenza 70.92 Km 490 m 02:54:16 24.42 Km\h Wilier IzoardXP
09/02/2019 Show to everybody Primo raduno 2019 89.05 Km 497 m 03:44:22 23.81 Km\h Wilier IzoardXP
27/01/2019 Show to everybody Giro mattutino 75.4 Km 447 m 02:59:47 25.16 Km\h Wilier IzoardXP
26/01/2019 Show to everybody Giro mattutino 65.75 Km 258 m 02:33:45 25.66 Km\h Wilier IzoardXP
25/01/2019 Show to everybody Road Grand Tours - Passo Dello Stelvio 27.93 Km 1113 m 02:30:22 11.14 Km\h Bianchi ViaNirone
20/01/2019 Show to everybody Road Grand Tours - Cap Formentor, Mallorca 37.74 Km 842 m 01:56:40 19.41 Km\h Bianchi ViaNirone
19/01/2019 Show to everybody Giro mattutino 59.93 Km 344 m 02:38:08 22.74 Km\h Wilier IzoardXP
13/01/2019 Show to everybody Giro mattutino 79.63 Km 299 m 03:04:40 25.87 Km\h Wilier IzoardXP
12/01/2019 Show to everybody Giro mattutino 66.18 Km 273 m 02:34:16 25.74 Km\h Wilier GTR Team
06/01/2019 Show to everybody Road Grand Tours - 8Bar Crit 31.06 Km 0 m 01:01:31 30.29 Km\h Bianchi ViaNirone
05/01/2019 Show to everybody Giretto test bici 33.98 Km 70 m 01:29:56 22.67 Km\h Wilier IzoardXP
02/01/2019 Show to everybody Primi km 2019 58.57 Km 76 m 02:21:47 24.78 Km\h Wilier IzoardXP
30/12/2018 Show to everybody Ultima pedalata 2018 88.81 Km 208 m 03:34:58 24.79 Km\h Wilier IzoardXP
29/12/2018 Show to everybody Giro mattutino 58.74 Km 250 m 02:24:10 24.45 Km\h Wilier IzoardXP
09/12/2018 Show to everybody Giro mattutino 58.79 Km 282 m 02:18:42 25.43 Km\h Wilier IzoardXP
01/12/2018 Show to everybody Giro mattutino 45.48 Km 353 m 01:59:09 22.9 Km\h Wilier IzoardXP
18/11/2018 Show to everybody Giro mattutino 76.19 Km 432 m 03:05:09 24.69 Km\h Wilier IzoardXP
17/11/2018 Show to everybody Giro mattutino 80.95 Km 403 m 03:11:21 25.38 Km\h Wilier IzoardXP
11/11/2018 Show to everybody Palazzuolo 107.87 Km 764 m 04:05:41 26.34 Km\h Wilier IzoardXP
10/11/2018 Show to everybody Giro mattutino 81.37 Km 428 m 03:10:03 25.69 Km\h Wilier IzoardXP
04/11/2018 Show to everybody Giro mattutino 82.23 Km 738 m 03:29:07 23.59 Km\h Wilier IzoardXP
03/11/2018 Show to everybody Raduno Telethon Lugo 65.56 Km 255 m 02:38:59 24.74 Km\h Wilier IzoardXP
28/10/2018 Show to everybody Uisp Imola e giretto bagnato 60.99 Km 167 m 02:18:48 26.37 Km\h Wilier IzoardXP
27/10/2018 Show to everybody Uisp Lugo 75.04 Km 345 m 02:57:57 25.3 Km\h Wilier IzoardXP
21/10/2018 Show to everybody Uisp Faenza 83.94 Km 477 m 03:19:30 25.25 Km\h Wilier IzoardXP
20/10/2018 Show to everybody Uisp Ravenna-Bertinoro 118.62 Km 330 m 04:32:36 26.11 Km\h Wilier IzoardXP
14/10/2018 Show to everybody Giro mattutino 95.52 Km 634 m 03:52:21 24.67 Km\h Wilier IzoardXP
13/10/2018 Show to everybody Raduno Riolo-Palazzuolo-P.Carnevale 117.74 Km 1036 m 04:44:15 24.85 Km\h Wilier IzoardXP
07/10/2018 Show to everybody Raduno Prada-Castrocaro 97.45 Km 265 m 03:38:01 26.82 Km\h Wilier IzoardXP
06/10/2018 Show to everybody Raduno Imola-CastelDelRio-Bordona 91.03 Km 666 m 03:46:01 24.17 Km\h Wilier IzoardXP
30/09/2018 Show to everybody Lugo-Comacchio-Lugo 111.85 Km 71 m 04:11:10 26.72 Km\h Wilier GTR Team
29/09/2018 Show to everybody Giro mattutino 87.57 Km 710 m 03:42:16 23.64 Km\h Wilier GTR Team
23/09/2018 Show to everybody CMA Asbid Imola (perc. lungo) 110.27 Km 1209 m 04:41:58 23.47 Km\h Wilier GTR Team
22/09/2018 Show to everybody Giro mattutino 85 Km 455 m 03:22:05 25.24 Km\h Wilier GTR Team
16/09/2018 Show to everybody Raduno Deka Riders Team 78.18 Km 453 m 03:01:51 25.8 Km\h Wilier GTR Team
15/09/2018 Show to everybody Raduni Conselice-Russi 65.14 Km 83 m 02:23:42 27.2 Km\h Wilier GTR Team
09/09/2018 Show to everybody Raduno Argenta 120.22 Km 90 m 04:15:13 28.26 Km\h Wilier GTR Team
08/09/2018 Show to everybody Giro mattutino 70.24 Km 89 m 02:32:28 27.64 Km\h Wilier GTR Team
02/09/2018 Show to everybody G.F. M.Pantani (perc.corto) 75.25 Km 638 m 02:49:30 26.64 Km\h Wilier GTR Team
25/08/2018 Show to everybody Giro mattutino 57.56 Km 288 m 02:21:14 24.45 Km\h Wilier GTR Team
23/08/2018 Show to everybody Raticosa-Futa-ValSerena-MonteFreddi-Raticosa 83.41 Km 1977 m 04:49:02 17.32 Km\h Wilier IzoardXP
21/08/2018 Show to everybody Sassoleone-Bordona-CastelDelRio-Valsalva 104.07 Km 1021 m 04:32:24 22.92 Km\h Wilier IzoardXP
19/08/2018 Show to everybody Giro mattutino 102.22 Km 1122 m 04:36:58 22.14 Km\h Wilier IzoardXP
17/08/2018 Show to everybody Carnevale e Sambuca 45.68 Km 1133 m 02:46:25 16.47 Km\h Wilier IzoardXP
16/08/2018 Show to everybody Giro mattutino 82.13 Km 714 m 03:30:16 23.44 Km\h Wilier IzoardXP
13/08/2018 Show to everybody CastelDelRio-Bordona-Sassoleone 93.03 Km 910 m 04:01:51 23.08 Km\h Wilier IzoardXP
12/08/2018 Show to everybody Raduno Faenza-M.Trebbio 121.97 Km 1161 m 05:22:58 22.66 Km\h Wilier IzoardXP
11/08/2018 Show to everybody Raduno S.Lorenzo 93 Km 490 m 03:35:07 25.94 Km\h Wilier IzoardXP
07/08/2018 Show to everybody Giro mattutino 90.79 Km 555 m 03:34:13 25.43 Km\h Wilier IzoardXP
05/08/2018 Show to everybody Carnevale-Colla di Casaglia-Giogo-Faggiola 96.65 Km 2261 m 05:39:58 17.06 Km\h Wilier IzoardXP
28/07/2018 Show to everybody Raduno Osteria Grande - M.te Calderaro 95.43 Km 812 m 04:06:45 23.21 Km\h Wilier IzoardXP
22/07/2018 Show to everybody Raduno Solarolo 82.85 Km 647 m 03:19:32 24.91 Km\h Wilier GTR Team
15/07/2018 Show to everybody Raduno Brisighella 74.55 Km 409 m 02:53:30 25.78 Km\h Wilier GTR Team
14/07/2018 Show to everybody Giro mattutino 81.59 Km 630 m 03:20:59 24.36 Km\h Wilier GTR Team
08/07/2018 Show to everybody Percorso corto della Charly Gaul 55.41 Km 1978 m 03:41:56 14.98 Km\h Wilier GTR Team
06/07/2018 Show to everybody Giro dell`ora di pranzo 17.6 Km 534 m 01:10:35 14.96 Km\h Wilier GTR Team
01/07/2018 Show to everybody Raduno CoopCeramica Imola 97.43 Km 516 m 03:37:51 26.83 Km\h Wilier IzoardXP
30/06/2018 Show to everybody Palazzuolo-P.Sambuca 128.75 Km 1384 m 05:25:59 23.7 Km\h Wilier IzoardXP
24/06/2018 Show to everybody Raduno S.Lucia-Faenza 68.34 Km 172 m 02:37:19 26.06 Km\h Wilier IzoardXP
23/06/2018 Show to everybody Pedalata centenario F.Baracca Lugo-Nervesa della Battaglia 200.48 Km 510 m 06:50:44 29.29 Km\h Wilier IzoardXP
17/06/2018 Show to everybody Pedale Bizantino 118.08 Km 975 m 04:55:14 24 Km\h Wilier IzoardXP
16/06/2018 Show to everybody Raduno Isola-Casola-Fontanelice 83.68 Km 720 m 03:24:16 24.58 Km\h Wilier IzoardXP
10/06/2018 Show to everybody Mediofondo Ale`laMerckx Verona 79.48 Km 1418 m 03:37:08 21.96 Km\h Wilier GTR Team
03/06/2018 Show to everybody G.F. Tozzona Imola (perc. lungo+trasf.) 169.05 Km 2191 m 07:34:16 22.33 Km\h Wilier GTR Team
02/06/2018 Show to everybody Raduno Cefla 59.68 Km 241 m 02:11:10 27.3 Km\h Wilier GTR Team
27/05/2018 Show to everybody Giro mattutino 63.71 Km 317 m 02:27:22 25.94 Km\h Wilier GTR Team
20/05/2018 Show to everybody NoveColli (perc. 130km) 131.43 Km 2157 m 05:45:39 22.81 Km\h Wilier IzoardXP
19/05/2018 Show to everybody Raduno Lavezzola 37.38 Km 12 m 01:19:46 28.12 Km\h Wilier IzoardXP
13/05/2018 Show to everybody G:F. Cattolica (perc. corto) 78.65 Km 1352 m 03:23:58 23.14 Km\h Wilier IzoardXP
12/05/2018 Show to everybody Giro pomeridiano 15.26 Km 238 m 00:57:48 15.84 Km\h Wilier IzoardXP
06/05/2018 Show to everybody G.F. Via del Sale Cervia (perc. medio) 116.15 Km 1313 m 04:35:10 25.33 Km\h Wilier GTR Team
05/05/2018 Show to everybody Raduno CastelDelRio 80.6 Km 351 m 02:50:06 28.43 Km\h Wilier GTR Team
01/05/2018 Show to everybody Mediofondo della Dieci Colli 82.77 Km 1263 m 03:30:08 23.63 Km\h Wilier GTR Team
29/04/2018 Show to everybody G.F. Valle Senio (perc. 100km) 135.52 Km 1438 m 05:30:01 24.64 Km\h Wilier GTR Team
28/04/2018 Show to everybody Raduno Bagnacavallo 64.8 Km 227 m 02:21:24 27.5 Km\h Wilier GTR Team
25/04/2018 Show to everybody Raduno Marzeno-Tredozio 108.28 Km 571 m 03:50:17 28.21 Km\h Wilier IzoardXP
22/04/2018 Show to everybody La Ercole Baldini (perc. lungo) 153.81 Km 1884 m 06:32:55 23.49 Km\h Wilier IzoardXP
21/04/2018 Show to everybody Raduno Pontesanto 71.04 Km 361 m 02:48:39 25.27 Km\h Wilier IzoardXP
15/04/2018 Show to everybody Avis Faenza (perc. medio) 91.02 Km 1277 m 03:50:34 23.68 Km\h Wilier GTR Team
14/04/2018 Show to everybody Giro mattutino 117.1 Km 956 m 04:54:05 23.89 Km\h Wilier GTR Team
08/04/2018 Show to everybody Gita con il Pedale, M.Casale e Monticino 99.83 Km 915 m 04:01:50 24.77 Km\h Wilier GTR Team
07/04/2018 Show to everybody Raduno Placci 81.75 Km 522 m 03:14:00 25.28 Km\h Wilier GTR Team
02/04/2018 Show to everybody Raduno Granarolo-Villa Vezzano-Brisighella-Modigliana 112.28 Km 978 m 04:40:20 24.03 Km\h Wilier GTR Team
31/03/2018 Show to everybody Raduno Faenza e Garmin ko 24.28 Km 64 m 00:53:33 27.21 Km\h Wilier GTR Team
25/03/2018 Show to everybody Giro mattutino 83.67 Km 506 m 03:26:57 24.26 Km\h Wilier GTR Team
24/03/2018 Show to everybody Raduno Dosi Imola 94.99 Km 825 m 03:58:17 23.92 Km\h Wilier GTR Team
18/03/2018 Show to everybody G.F. Cassani (perc.corto) 84.69 Km 1381 m 03:51:01 22 Km\h Wilier GTR Team
11/03/2018 Show to everybody G.F. del Po (perc. corto) 83.7 Km 45 m 02:44:51 30.46 Km\h Wilier GTR Team
10/03/2018 Show to everybody Raduno Faenza-Zattaglia-Casola 91.92 Km 770 m 03:49:08 24.07 Km\h Wilier GTR Team
04/03/2018 Show to everybody Raduno Reda 59.61 Km 77 m 02:23:12 24.98 Km\h Wilier IzoardXP
24/02/2018 Show to everybody Raduno Imola 69.65 Km 288 m 02:52:38 24.21 Km\h Wilier IzoardXP
17/02/2018 Show to everybody Primo raduno 2018 69.03 Km 242 m 02:52:57 23.95 Km\h Wilier IzoardXP
04/02/2018 Show to everybody CastelDelRio 82.07 Km 422 m 03:17:18 24.96 Km\h Wilier IzoardXP
28/01/2018 Show to everybody Giro mattutino 72.6 Km 471 m 02:56:01 24.75 Km\h Wilier IzoardXP
27/01/2018 Show to everybody Giro mattutino 82.25 Km 692 m 03:34:46 22.98 Km\h Wilier IzoardXP
25/01/2018 Show to everybody Giro mattutino 77.23 Km 456 m 03:05:05 25.04 Km\h Wilier IzoardXP
21/01/2018 Show to everybody Giro in autodromo 70.63 Km 524 m 02:48:13 25.19 Km\h Wilier IzoardXP
20/01/2018 Show to everybody CastelDelRio-Valsalva 90.82 Km 591 m 03:44:59 24.22 Km\h Wilier IzoardXP
14/01/2018 Show to everybody Giro mattutino 74.12 Km 444 m 03:08:33 23.59 Km\h Wilier IzoardXP
13/01/2018 Show to everybody Fontanelice-Casola 82.13 Km 726 m 03:34:49 22.94 Km\h Wilier IzoardXP
06/01/2018 Show to everybody Palazzuolo 123.03 Km 877 m 04:57:21 24.83 Km\h Wilier IzoardXP
03/01/2018 Show to everybody Giro mattutino 63.91 Km 343 m 02:36:52 24.44 Km\h Wilier IzoardXP
30/12/2017 Show to everybody Ultimo giro 2017 85.63 Km 475 m 03:33:55 24.02 Km\h Wilier IzoardXP
29/12/2017 Show to everybody Marradi 121.58 Km 696 m 04:56:31 24.6 Km\h Wilier IzoardXP
27/12/2017 Show to everybody Giro mattutino 87.72 Km 127 m 03:24:56 25.68 Km\h Wilier IzoardXP
26/12/2017 Show to everybody Bertinoro 115.93 Km 348 m 04:44:09 24.48 Km\h Wilier IzoardXP
24/12/2017 Show to everybody Palazzuolo 107.82 Km 744 m 04:32:05 23.78 Km\h Wilier IzoardXP
17/12/2017 Show to everybody Brisighella 71.81 Km 224 m 02:53:23 24.85 Km\h Wilier IzoardXP
10/12/2017 Show to everybody CastelDelRio 81.2 Km 426 m 03:12:30 25.31 Km\h Wilier IzoardXP
18/11/2017 Show to everybody Giro mattutino 61.34 Km 336 m 02:24:25 25.49 Km\h Wilier IzoardXP
11/11/2017 Show to everybody Giro mattutino 79.92 Km 663 m 03:11:50 25 Km\h Wilier IzoardXP
04/11/2017 Show to everybody Giro mattutino 73.97 Km 345 m 02:48:29 26.34 Km\h Wilier IzoardXP
02/11/2017 Show to everybody Moraduccio 94.13 Km 625 m 03:40:01 25.67 Km\h Wilier IzoardXP
01/11/2017 Show to everybody Giro mattutino 82.28 Km 748 m 03:26:22 23.92 Km\h Wilier IzoardXP
29/10/2017 Show to everybody Gita a S.Luca 107.56 Km 427 m 04:22:55 24.55 Km\h Wilier GTR Team
28/10/2017 Show to everybody Raduno Imola 51.49 Km 346 m 02:08:53 23.97 Km\h Wilier GTR Team
22/10/2017 Show to everybody Giro mattutino 79.66 Km 469 m 03:09:03 25.28 Km\h Wilier GTR Team
21/10/2017 Show to everybody Giro mattutino 70.27 Km 82 m 02:32:47 27.59 Km\h Wilier GTR Team
15/10/2017 Show to everybody Raduno Imola-Sassoleone-Bordona 96.47 Km 848 m 03:57:21 24.39 Km\h Wilier IzoardXP
14/10/2017 Show to everybody Raduno Alfonsine 64.94 Km 24 m 02:17:43 28.29 Km\h Wilier IzoardXP
08/10/2017 Show to everybody Giro mattutino 91.46 Km 664 m 03:36:28 25.35 Km\h Wilier IzoardXP
07/10/2017 Show to everybody Palazzuolo 111.48 Km 783 m 04:13:36 26.37 Km\h Wilier IzoardXP
01/10/2017 Show to everybody Lugo-Comacchio-Lugo 110.94 Km 56 m 03:42:30 29.92 Km\h Wilier GTR Team
30/09/2017 Show to everybody Raduno Somec-Casola-Fontanelice 87.84 Km 712 m 03:34:18 24.59 Km\h Wilier GTR Team
24/09/2017 Show to everybody C.M.A. Imola (perc. medio) 94.44 Km 790 m 03:44:39 25.22 Km\h Wilier GTR Team
23/09/2017 Show to everybody Giro mattutino 68.14 Km 189 m 02:29:26 27.36 Km\h Wilier GTR Team
17/09/2017 Show to everybody Raduno Deka 85.57 Km 501 m 03:28:40 24.61 Km\h Wilier IzoardXP
16/09/2017 Show to everybody Raduni Conselice-Russi 73.38 Km 86 m 02:38:41 27.75 Km\h Wilier IzoardXP
09/09/2017 Show to everybody Giro mattutino 62.92 Km 50 m 02:16:32 27.65 Km\h Wilier GTR Team
03/09/2017 Show to everybody Tozzona Imola 2 50.05 Km 145 m 01:47:56 27.82 Km\h Wilier GTR Team
03/09/2017 Show to everybody Tozzona Imola 1 44.96 Km 547 m 02:03:03 21.92 Km\h Wilier GTR Team
02/09/2017 Show to everybody Raduno C.S.Pietro 58.1 Km 237 m 02:12:23 26.33 Km\h Wilier GTR Team
27/08/2017 Show to everybody Raduno Faenza 55.89 Km 202 m 02:10:36 25.68 Km\h Wilier IzoardXP
26/08/2017 Show to everybody Giro mattutino 93.77 Km 661 m 03:58:19 23.61 Km\h Wilier IzoardXP
22/08/2017 Show to everybody M.Chioda-M.Busca 141.68 Km 1367 m 06:18:18 22.47 Km\h Wilier GTR Team
20/08/2017 Show to everybody Giro mattutino 72.02 Km 338 m 02:53:38 24.89 Km\h Wilier IzoardXP
19/08/2017 Show to everybody Giro mattutino 90.37 Km 627 m 03:54:24 23.13 Km\h Wilier IzoardXP
17/08/2017 Show to everybody Fontanelice-Casola-Palazzuolo 120 Km 1016 m 05:08:27 23.34 Km\h Wilier IzoardXP
13/08/2017 Show to everybody Marradi-Palazzuolo 123.49 Km 984 m 05:05:16 24.27 Km\h Wilier IzoardXP
10/08/2017 Show to everybody Giro mattutino 104.63 Km 978 m 04:43:34 22.14 Km\h Wilier IzoardXP
08/08/2017 Show to everybody ...e ritorno 64.49 Km 120 m 02:20:54 27.46 Km\h Wilier IzoardXP
08/08/2017 Show to everybody Palazzuolo-P.Sambuca 52.72 Km 1152 m 02:48:28 18.78 Km\h Wilier IzoardXP
05/08/2017 Show to everybody Raduno S.Lorenzo-M.Albano 97.53 Km 667 m 03:53:06 25.1 Km\h Wilier IzoardXP
30/07/2017 Show to everybody Giro mattutino 91.14 Km 518 m 03:26:03 26.54 Km\h Wilier GTR Team
23/07/2017 Show to everybody Raduno Solarolo 86.08 Km 640 m 03:37:07 23.79 Km\h Wilier GTR Team
22/07/2017 Show to everybody Mediofondo Atletica 85 Faenza 132.73 Km 1027 m 05:10:20 25.66 Km\h Wilier GTR Team
16/07/2017 Show to everybody Raduno Brisighella 80.8 Km 463 m 03:05:40 26.11 Km\h Wilier IzoardXP
15/07/2017 Show to everybody Raduno Fruges-Fontanelice-Prugno 81.6 Km 585 m 03:21:53 24.25 Km\h Wilier IzoardXP
09/07/2017 Show to everybody Mediofondo della Charly Gaul 55.29 Km 1965 m 03:31:14 15.7 Km\h Wilier GTR Team
07/07/2017 Show to everybody Giro pomeridiano 20.44 Km 627 m 01:21:39 15.02 Km\h Wilier GTR Team
02/07/2017 Show to everybody Raduno Imola 68.77 Km 314 m 02:41:29 25.55 Km\h Wilier GTR Team
01/07/2017 Show to everybody Faggiola 123.96 Km 1168 m 05:11:11 23.9 Km\h Wilier IzoardXP
25/06/2017 Show to everybody Fratta Terme 122.25 Km 211 m 04:19:14 28.3 Km\h Wilier GTR Team
24/06/2017 Show to everybody Casola-Fontanelice 84.08 Km 678 m 03:24:32 24.66 Km\h Wilier IzoardXP
17/06/2017 Show to everybody Giro mattutino 98.89 Km 741 m 04:02:26 24.47 Km\h Wilier GTR Team
11/06/2017 Show to everybody G.F. Medicina (perc. lungo) 136.63 Km 1817 m 05:40:58 24.04 Km\h Wilier IzoardXP
10/06/2017 Show to everybody Raduno Bagnacavallo 74.19 Km 292 m 02:46:29 26.74 Km\h Wilier GTR Team
04/06/2017 Show to everybody G.F. di Ravenna (perc. lungo) 146.93 Km 1508 m 05:54:56 24.84 Km\h Wilier IzoardXP
03/06/2017 Show to everybody Raduno Placci 56.88 Km 201 m 02:11:45 25.9 Km\h Wilier GTR Team
02/06/2017 Show to everybody Raduno Cefla Imola 87.52 Km 638 m 03:26:07 25.48 Km\h Wilier GTR Team
28/05/2017 Show to everybody Palazzuolo 108.43 Km 692 m 03:54:44 27.72 Km\h Wilier IzoardXP
27/05/2017 Show to everybody Tossignano 64.37 Km 342 m 02:30:40 25.63 Km\h Wilier IzoardXP
24/05/2017 Show to everybody Giretto pomeridiano 50.04 Km 223 m 01:54:49 26.15 Km\h Wilier IzoardXP
21/05/2017 Show to everybody Novecolli (perc. 130 km) 131.92 Km 2049 m 05:33:26 23.74 Km\h Wilier IzoardXP
20/05/2017 Show to everybody Raduno Lavezzola 37.5 Km 8 m 01:21:35 27.58 Km\h Wilier IzoardXP
16/05/2017 Show to everybody TreMonti 45.4 Km 300 m 01:45:21 25.86 Km\h Wilier GTR Team
14/05/2017 Show to everybody G.F. Valle Santerno (perc. medio) 140.12 Km 1352 m 05:43:09 24.5 Km\h Wilier GTR Team
13/05/2017 Show to everybody Raduno CastelDelRio 96.84 Km 842 m 04:00:11 24.19 Km\h Wilier GTR Team
07/05/2017 Show to everybody Giro di Romagna (2 parte) 97.84 Km 682 m 03:45:53 25.99 Km\h Wilier GTR Team
07/05/2017 Show to everybody Giro di Romagna (1 parte) 86.33 Km 1696 m 04:26:52 19.41 Km\h Wilier GTR Team
06/05/2017 Show to everybody Raduno Imola 67.2 Km 358 m 02:51:41 23.49 Km\h Wilier GTR Team
01/05/2017 Show to everybody Percorso Mediofondo alla DieciColli 86.12 Km 1684 m 04:05:16 21.07 Km\h Wilier IzoardXP
30/04/2017 Show to everybody Casola 82.39 Km 436 m 03:04:42 26.77 Km\h Wilier IzoardXP
29/04/2017 Show to everybody Raduno Bagnacavallo 77 Km 316 m 02:55:07 26.38 Km\h Wilier IzoardXP
25/04/2017 Show to everybody Raduno Marzeno-Tredozio-V.Collina-M.Casale 117.87 Km 1165 m 05:02:12 23.4 Km\h Wilier GTR Team
23/04/2017 Show to everybody G.F. E.Baldini (perc. lungo) 154.25 Km 1836 m 06:28:46 23.81 Km\h Wilier GTR Team
22/04/2017 Show to everybody Raduno Pontesanto 89.29 Km 398 m 03:25:46 26.04 Km\h Wilier GTR Team
17/04/2017 Show to everybody Raduno Granarolo-M.Casale 112.2 Km 1011 m 04:47:06 23.45 Km\h Wilier GTR Team
15/04/2017 Show to everybody Raduno Imola-Fontanelice-Casola 85.89 Km 664 m 03:28:56 24.66 Km\h Wilier GTR Team
09/04/2017 Show to everybody Avis Faenza (perc. medio) 96.15 Km 1293 m 03:53:25 24.72 Km\h Wilier IzoardXP
08/04/2017 Show to everybody Giro mattutino 84.46 Km 287 m 03:10:31 26.6 Km\h Wilier IzoardXP
02/04/2017 Show to everybody G.F. Cervia (perc. medio) 102.81 Km 942 m 03:45:03 27.41 Km\h Wilier IzoardXP
01/04/2017 Show to everybody M.F. Cotignolese (perc. medio) 100.13 Km 798 m 03:58:55 25.15 Km\h Wilier IzoardXP
26/03/2017 Show to everybody Bertinoro-Polenta-Fratta Terme 124.13 Km 484 m 04:52:38 25.45 Km\h Wilier IzoardXP
25/03/2017 Show to everybody Dosi Imola (perc. lungo) 111.87 Km 1238 m 04:56:23 22.65 Km\h Wilier IzoardXP
19/03/2017 Show to everybody G.F. Cassani (perc. medio) 84.86 Km 1327 m 03:33:58 23.8 Km\h Wilier IzoardXP
18/03/2017 Show to everybody Raduno S.Lucia 98.93 Km 269 m 03:41:06 26.85 Km\h Wilier IzoardXP
12/03/2017 Show to everybody Raduno Prada-Castrocaro-M.Trebbio-M.Casale 119.12 Km 1116 m 05:16:55 22.55 Km\h Wilier IzoardXP
11/03/2017 Show to everybody Raduno Faenza-Zattaglia-M.Albano-Prugno 102.4 Km 1080 m 04:25:34 23.14 Km\h Wilier IzoardXP
05/03/2017 Show to everybody G.F. del Po (perc. corto) 86.15 Km 45 m 02:56:49 29.23 Km\h Wilier IzoardXP
04/03/2017 Show to everybody Raduno Dozza 49.9 Km 258 m 01:54:47 26.09 Km\h Wilier IzoardXP
26/02/2017 Show to everybody Palazzuolo-P.Carnevale 118.11 Km 1032 m 04:48:35 24.56 Km\h Wilier IzoardXP
25/02/2017 Show to everybody Raduno Granarolo 75.73 Km 300 m 03:02:19 24.92 Km\h Wilier IzoardXP
19/02/2017 Show to everybody Raduno Riolo-M.Albano 83.55 Km 731 m 03:28:51 24 Km\h Wilier IzoardXP
18/02/2017 Show to everybody Sassoleone-CastelDelRio 93.71 Km 853 m 04:04:23 23.01 Km\h Wilier IzoardXP
12/02/2017 Show to everybody Raduno Lugo-Casola-Fontanelice 96.47 Km 723 m 04:08:51 23.26 Km\h Bianchi ViaNirone
11/02/2017 Show to everybody Raduno Lugo-M.te Casale 103.36 Km 689 m 04:28:02 23.14 Km\h Bianchi ViaNirone
05/02/2017 Show to everybody Raduno Faenza-Riolo-Brisighella 77.75 Km 505 m 03:20:46 23.24 Km\h Bianchi ViaNirone
04/02/2017 Show to everybody Raduno Imola 89.93 Km 414 m 03:36:25 24.93 Km\h Bianchi ViaNirone
29/01/2017 Show to everybody Fontanelice-Prugno 78.85 Km 663 m 03:27:59 22.75 Km\h Bianchi ViaNirone
28/01/2017 Show to everybody Tredozio 111.97 Km 536 m 04:28:52 24.99 Km\h Bianchi ViaNirone
21/01/2017 Show to everybody Casola 78.98 Km 439 m 03:10:09 24.92 Km\h Bianchi ViaNirone
07/01/2017 Show to everybody Fontanelice 66.16 Km 255 m 02:37:49 25.15 Km\h Bianchi ViaNirone
04/01/2017 Show to everybody Riolo 55.67 Km 192 m 02:15:28 24.66 Km\h Bianchi ViaNirone
02/01/2017 Show to everybody CastelDelRio 87.3 Km 477 m 03:35:21 24.32 Km\h Bianchi ViaNirone
29/12/2016 Show to everybody Bertinoro 113.6 Km 308 m 04:35:02 24.78 Km\h Bianchi ViaNirone
27/12/2016 Show to everybody Casola-Fontanelice 82.4 Km 722 m 03:46:46 21.8 Km\h Bianchi ViaNirone
17/12/2016 Show to everybody Tossignano 63.34 Km 336 m 02:36:57 24.21 Km\h Bianchi ViaNirone
11/12/2016 Show to everybody Raduno Bologna 87.84 Km 218 m 03:28:30 25.28 Km\h Bianchi ViaNirone
10/12/2016 Show to everybody Riolo-Brisighella 74.61 Km 483 m 03:11:43 23.35 Km\h Bianchi ViaNirone
03/12/2016 Show to everybody Piancaldoli 102.49 Km 847 m 04:25:20 23.17 Km\h Bianchi ViaNirone
27/11/2016 Show to everybody Misileo 92.82 Km 594 m 03:39:54 25.33 Km\h Bianchi ViaNirone
26/11/2016 Show to everybody Fontanelice-Prugno 80.28 Km 611 m 03:23:18 23.69 Km\h Bianchi ViaNirone
20/11/2016 Show to everybody Imola-TreMonti 47.3 Km 351 m 02:12:31 21.42 Km\h Bianchi ViaNirone
13/11/2016 Show to everybody CastelDelRio-Valsalva 90.94 Km 538 m 03:37:02 25.14 Km\h Bianchi ViaNirone
30/10/2016 Show to everybody Giro mattutino 73.18 Km 309 m 02:49:49 25.86 Km\h Bianchi ViaNirone
29/10/2016 Show to everybody Marradi-Palazzuolo 124.47 Km 933 m 05:14:13 23.77 Km\h Bianchi ViaNirone
23/10/2016 Show to everybody Raduno Imola-Dozza 50.78 Km 251 m 02:04:13 24.53 Km\h Bianchi ViaNirone
22/10/2016 Show to everybody Raduno Granarolo 80.09 Km 466 m 03:15:06 24.63 Km\h Bianchi ViaNirone
16/10/2016 Show to everybody Lugo-Comacchio-Lugo 112.27 Km 55 m 03:57:46 28.33 Km\h Bianchi ViaNirone
15/10/2016 Show to everybody Raduno Alfonsine 60.36 Km 30 m 02:24:17 25.1 Km\h Bianchi ViaNirone
08/10/2016 Show to everybody Casola-Fontanelice 88.09 Km 699 m 03:38:55 24.14 Km\h Bianchi ViaNirone
02/10/2016 Show to everybody Gita a Sorrivoli 160.03 Km 589 m 05:52:29 27.24 Km\h Wilier IzoardXP
01/10/2016 Show to everybody Giro mattutino 79.49 Km 465 m 03:08:15 25.34 Km\h Wilier IzoardXP
25/09/2016 Show to everybody C.M.A. Asbid Imola 110.61 Km 1231 m 04:49:19 22.94 Km\h Wilier IzoardXP
24/09/2016 Show to everybody Giro mattutino1 48.07 Km 200 m 01:55:31 24.97 Km\h Wilier IzoardXP
24/09/2016 Show to everybody Giro mattutino2 40.46 Km 290 m 01:39:48 24.33 Km\h Wilier IzoardXP
18/09/2016 Show to everybody CastelDelRio-Bordona 90.62 Km 624 m 03:36:14 25.15 Km\h Bianchi ViaNirone
17/09/2016 Show to everybody Raduni Conselice-Russi 102.26 Km 276 m 03:46:33 27.08 Km\h Bianchi ViaNirone
11/09/2016 Show to everybody Raduno Argenta 80.84 Km 47 m 02:53:07 28.02 Km\h Bianchi ViaNirone
10/09/2016 Show to everybody Raduno Imola 99.18 Km 864 m 04:16:25 23.21 Km\h Bianchi ViaNirone
04/09/2016 Show to everybody Mediofondo del Muraglione 120.82 Km 1386 m 05:04:03 23.84 Km\h Wilier IzoardXP
03/09/2016 Show to everybody Raduno Glorie 64.93 Km 47 m 02:27:20 26.44 Km\h Wilier IzoardXP
28/08/2016 Show to everybody G.F. Citta` di Imola (perc. lungo) 169.13 Km 2174 m 07:17:03 23.22 Km\h Wilier IzoardXP
27/08/2016 Show to everybody Raduno S.Patrizio-TreMonti 58.27 Km 299 m 02:22:39 24.51 Km\h Wilier IzoardXP
24/08/2016 Show to everybody M.Albano 83.08 Km 690 m 03:27:09 24.06 Km\h Wilier IzoardXP
22/08/2016 Show to everybody Faggiola 123.23 Km 1123 m 05:22:02 22.96 Km\h Wilier IzoardXP
20/08/2016 Show to everybody Raduno Marzeno-M.Trebbio 51.58 Km 634 m 02:25:30 21.27 Km\h Wilier IzoardXP
20/08/2016 Show to everybody Ritorno dal M.Trebbio 49.8 Km 175 m 01:49:14 27.35 Km\h Wilier IzoardXP
19/08/2016 Show to everybody Casola-Fontanelice 82 Km 683 m 03:21:25 24.43 Km\h Wilier IzoardXP
16/08/2016 Show to everybody P.Sambuca-P.Colla 142.71 Km 1723 m 06:27:55 22.07 Km\h Wilier IzoardXP
14/08/2016 Show to everybody Palazzuolo-Marradi 124.58 Km 976 m 05:06:07 24.42 Km\h Wilier IzoardXP
12/08/2016 Show to everybody Firenzuola-P.Futa 147.59 Km 1291 m 06:21:19 23.22 Km\h Wilier IzoardXP
09/08/2016 Show to everybody Fontanelice-Casola 82.3 Km 649 m 03:27:22 23.81 Km\h Wilier IzoardXP
08/08/2016 Show to everybody Giro prova bici 61.03 Km 204 m 02:28:13 24.71 Km\h Wilier IzoardXP
07/08/2016 Show to everybody Sassoleone-Bordona 93.48 Km 806 m 04:03:35 23.03 Km\h Wilier IzoardXP
24/07/2016 Show to everybody Raduno Solarolo 86.38 Km 644 m 03:29:54 24.69 Km\h Bianchi ViaNirone
23/07/2016 Show to everybody Raduno Atl85-Marradi-Carnevale 118.95 Km 1189 m 04:50:11 24.59 Km\h Bianchi ViaNirone
23/07/2016 Show to everybody Ritorno Raduno Atl85 17.06 Km 18 m 00:36:26 28.09 Km\h Bianchi ViaNirone
17/07/2016 Show to everybody Monticino-M.Albano 93.62 Km 812 m 03:43:38 25.12 Km\h Bianchi ViaNirone
16/07/2016 Show to everybody Giro mattutino 69.64 Km 498 m 02:55:23 23.82 Km\h Wilier IzoardXP
10/07/2016 Show to everybody Raduno Fontanelice-P.Raticosa 124.43 Km 1244 m 05:19:59 23.33 Km\h Bianchi ViaNirone
09/07/2016 Show to everybody Palazzuolo 108.12 Km 695 m 04:02:23 26.76 Km\h Bianchi ViaNirone
03/07/2016 Show to everybody Raduno CoopCeram 97.27 Km 646 m 03:48:02 25.59 Km\h Bianchi ViaNirone
02/07/2016 Show to everybody Raduno Alfonsine 70.13 Km 41 m 02:32:12 27.65 Km\h Bianchi ViaNirone
26/06/2016 Show to everybody Asd Osteria Ravenna 135.54 Km 654 m 05:00:51 27.03 Km\h Wilier IzoardXP
25/06/2016 Show to everybody Giro mattutino 81.87 Km 397 m 03:15:02 25.19 Km\h Wilier IzoardXP
23/06/2016 Show to everybody Giretto pomeridiano 61.61 Km 273 m 02:16:47 27.02 Km\h Bianchi ViaNirone
19/06/2016 Show to everybody Pedale Bizantino 120.59 Km 1068 m 04:55:06 24.52 Km\h Wilier IzoardXP
18/06/2016 Show to everybody Raduno Riolo 96.78 Km 991 m 04:15:32 22.72 Km\h Wilier IzoardXP
12/06/2016 Show to everybody G.F. Medicina (perc. lungo) 140.24 Km 1857 m 05:54:31 23.73 Km\h Wilier IzoardXP
11/06/2016 Show to everybody CastelDelRio-Valsalva 92.87 Km 563 m 03:30:44 26.44 Km\h Wilier IzoardXP
05/06/2016 Show to everybody G.F. Ravenna (perc. lungo) 134.13 Km 1628 m 05:47:27 23.16 Km\h Wilier IzoardXP
04/06/2016 Show to everybody Raduno Placci 81.26 Km 385 m 03:13:52 25.15 Km\h Wilier IzoardXP
02/06/2016 Show to everybody Raduno Cefla Imola 87.22 Km 631 m 03:30:28 24.87 Km\h Wilier IzoardXP
22/05/2016 Show to everybody Nove Colli (perc. 130 km) 131.96 Km 2013 m 05:45:21 22.93 Km\h Wilier IzoardXP
21/05/2016 Show to everybody Raduno Villa Franchi 71.69 Km 429 m 02:55:05 24.57 Km\h Bianchi ViaNirone
15/05/2016 Show to everybody G.F. Valle Santerno (perc. medio) 143.11 Km 1383 m 05:38:57 25.33 Km\h Wilier IzoardXP
14/05/2016 Show to everybody Raduno Lavezzola 58.91 Km 22 m 02:00:57 29.22 Km\h Bianchi ViaNirone
08/05/2016 Show to everybody Giro di Romagna 189.24 Km 2300 m 08:04:59 23.41 Km\h Wilier IzoardXP
07/05/2016 Show to everybody Raduno S.Andrea-Modigliana-M.Casale 93.32 Km 625 m 03:40:21 25.41 Km\h Wilier IzoardXP
01/05/2016 Show to everybody Dieci Colli Bologna (perc. medio) 97.59 Km 1818 m 04:26:30 21.97 Km\h Wilier IzoardXP
30/04/2016 Show to everybody Raduno Bagnacavallo 64.77 Km 237 m 02:27:24 26.37 Km\h Wilier IzoardXP
25/04/2016 Show to everybody Marzeno-Lutirano-Tredozio 121.28 Km 794 m 04:54:23 24.72 Km\h Wilier IzoardXP
24/04/2016 Show to everybody G.F. E.Baldini (perc.medio) 108.07 Km 1703 m 04:35:54 23.5 Km\h Wilier IzoardXP
23/04/2016 Show to everybody Raduno Pontesanto 60.57 Km 294 m 02:24:16 25.19 Km\h Wilier IzoardXP
17/04/2016 Show to everybody C.M.C. Ravenna (perc. lungo) 154.06 Km 1023 m 06:17:43 24.47 Km\h Wilier IzoardXP
16/04/2016 Show to everybody Cotignolese (perc. lungo) 128.19 Km 1382 m 05:31:55 23.17 Km\h Wilier IzoardXP
10/04/2016 Show to everybody Avis Faenza (perc. medio) 91.27 Km 1271 m 03:48:22 23.98 Km\h Wilier IzoardXP
09/04/2016 Show to everybody Raduno Granarolo 82.51 Km 475 m 03:16:47 25.16 Km\h Wilier IzoardXP
03/04/2016 Show to everybody G.F. Cervia (perc. medio) 103.51 Km 954 m 03:47:21 27.32 Km\h Wilier IzoardXP
02/04/2016 Show to everybody Raduno Dosi Imola 96.73 Km 806 m 03:50:52 25.14 Km\h Wilier IzoardXP
28/03/2016 Show to everybody G.F. D.Cassani (perc. medio) 85.09 Km 1177 m 03:26:27 24.73 Km\h Wilier IzoardXP
25/03/2016 Show to everybody M.Chioda-Peschiera-Eremo 163.16 Km 1836 m 07:24:41 22.01 Km\h Wilier IzoardXP
20/03/2016 Show to everybody Bertolt Brecht Russi (perc. lungo+trasf.) 152.81 Km 1110 m 05:57:37 25.64 Km\h Wilier IzoardXP
19/03/2016 Show to everybody Raduno Faenza-Monticino 91.63 Km 674 m 03:49:44 23.93 Km\h Wilier IzoardXP
13/03/2016 Show to everybody Bertinoro-Polenta-Fratta Terme 124.79 Km 507 m 04:57:44 25.15 Km\h Wilier IzoardXP
12/03/2016 Show to everybody M.Casale-Monticino 98.14 Km 908 m 04:20:46 22.58 Km\h Wilier IzoardXP
06/03/2016 Show to everybody Raduno Reda-Brisighella-Riolo 111.76 Km 538 m 04:15:14 26.27 Km\h Wilier IzoardXP
05/03/2016 Show to everybody Raduno Dozza 50.51 Km 264 m 02:04:35 24.33 Km\h Wilier IzoardXP
28/02/2016 Show to everybody Prada-Castrocaro 92.01 Km 219 m 03:27:09 26.65 Km\h Wilier IzoardXP
21/02/2016 Show to everybody Raduno Club Estense 85.67 Km 55 m 02:59:52 28.58 Km\h Wilier IzoardXP
20/02/2016 Show to everybody Palazzuolo 111.52 Km 766 m 04:22:52 25.45 Km\h Wilier IzoardXP
14/02/2016 Show to everybody Raduno Placci bagnato 39.67 Km 38 m 01:33:32 25.45 Km\h Wilier IzoardXP
13/02/2016 Show to everybody Raduno Imola-Fontanelice-Prugno 81.93 Km 634 m 03:29:28 23.47 Km\h Wilier IzoardXP
07/02/2016 Show to everybody Raduno Uisp Faenza 67.76 Km 350 m 02:39:24 25.51 Km\h Wilier IzoardXP
06/02/2016 Show to everybody Primo raduno Uisp 83.15 Km 298 m 03:11:21 26.07 Km\h Wilier IzoardXP
30/01/2016 Show to everybody CastelDelRio 81.83 Km 428 m 03:06:24 26.34 Km\h Wilier IzoardXP
24/01/2016 Show to everybody Brisighella-Riolo 74.1 Km 448 m 02:57:32 25.04 Km\h Bianchi ViaNirone
23/01/2016 Show to everybody CastelDelRio 87.75 Km 455 m 03:23:01 25.93 Km\h Bianchi ViaNirone
16/01/2016 Show to everybody Riolo-M.Coralli 64.29 Km 334 m 02:33:31 25.13 Km\h Bianchi ViaNirone
10/01/2016 Show to everybody Casola 81.8 Km 349 m 03:18:46 24.69 Km\h Bianchi ViaNirone
09/01/2016 Show to everybody Tossignano 66.39 Km 326 m 02:42:31 24.51 Km\h Bianchi ViaNirone
27/12/2015 Show to everybody Zattaglia-Casola 83.23 Km 658 m 03:29:35 23.83 Km\h Bianchi ViaNirone
20/12/2015 Show to everybody Palazzuolo 111.5 Km 774 m 04:28:14 24.94 Km\h Bianchi ViaNirone
13/12/2015 Show to everybody Fontanelice-Prugno 79.74 Km 634 m 03:16:59 24.29 Km\h Bianchi ViaNirone
06/12/2015 Show to everybody Modigliana 90.36 Km 256 m 03:11:42 28.28 Km\h Bianchi ViaNirone
05/12/2015 Show to everybody Fontanelice-Prugno 80.2 Km 629 m 03:20:38 23.99 Km\h Bianchi ViaNirone
28/11/2015 Show to everybody Riolo-Brisighella 74.31 Km 464 m 02:58:40 24.96 Km\h Bianchi ViaNirone
15/11/2015 Show to everybody Palazzuolo 108.01 Km 691 m 04:06:50 26.26 Km\h Bianchi ViaNirone
14/11/2015 Show to everybody CastelDelRio-Valsalva 90.94 Km 533 m 03:32:10 25.72 Km\h Bianchi ViaNirone
07/11/2015 Show to everybody Tossignano 63.47 Km 297 m 02:28:52 25.58 Km\h Bianchi ViaNirone
01/11/2015 Show to everybody Palazzuolo 108.35 Km 712 m 04:05:25 26.49 Km\h Bianchi ViaNirone
31/10/2015 Show to everybody Raduno Faenza-Marradi 121.95 Km 569 m 04:29:10 27.18 Km\h Bianchi ViaNirone
30/10/2015 Show to everybody Tossignano 63.57 Km 295 m 02:28:11 25.74 Km\h Wilier IzoardXP
25/10/2015 Show to everybody Raduno Imola-Fontanelice-Casola 84.86 Km 650 m 03:21:34 25.26 Km\h Wilier IzoardXP
24/10/2015 Show to everybody Raduno Lugo 73.07 Km 307 m 02:42:11 27.03 Km\h Wilier IzoardXP
18/10/2015 Show to everybody Raduno Imola 54.66 Km 67 m 02:00:27 27.23 Km\h Wilier IzoardXP
17/10/2015 Show to everybody Raduno Granarolo-Monticino-M.Albano 99.98 Km 820 m 04:07:04 24.28 Km\h Wilier IzoardXP
11/10/2015 Show to everybody Raduno Imola 47.66 Km 305 m 01:56:27 24.56 Km\h Wilier IzoardXP
04/10/2015 Show to everybody Giro bagnato con il gruppo 83.09 Km 34 m 02:58:25 27.94 Km\h Wilier IzoardXP
27/09/2015 Show to everybody Raduno CMA Imola 110.68 Km 1223 m 04:35:43 24.09 Km\h Wilier IzoardXP
26/09/2015 Show to everybody Raduno Pieve Cesato-M.Casale 108.98 Km 673 m 04:12:49 25.86 Km\h Bianchi ViaNirone
19/09/2015 Show to everybody Raduni Russi-Conselice 65.12 Km 66 m 02:11:16 29.77 Km\h Wilier IzoardXP
12/09/2015 Show to everybody Raduno Imola 85.83 Km 707 m 03:24:32 25.18 Km\h Wilier IzoardXP
06/09/2015 Show to everybody Pantanissima (perc. medio) 115.07 Km 1698 m 05:06:58 22.49 Km\h Wilier IzoardXP
05/09/2015 Show to everybody Raduno Imola 113.23 Km 728 m 04:07:31 27.45 Km\h Wilier IzoardXP
30/08/2015 Show to everybody G.F. Tozzona Imola (perc. medio) 133 Km 1441 m 05:32:54 23.97 Km\h Wilier IzoardXP
29/08/2015 Show to everybody Raduno S.Patrizio-Valsalva 104.32 Km 545 m 03:58:36 26.23 Km\h Wilier IzoardXP
25/08/2015 Show to everybody Firenzuola 124.77 Km 830 m 04:46:39 26.12 Km\h Wilier IzoardXP
22/08/2015 Show to everybody Palazzuolo-M.Carnevale 117.75 Km 1021 m 04:33:31 25.83 Km\h Wilier IzoardXP
21/08/2015 Show to everybody Fontanelice-Casola-Zattaglia 89.34 Km 961 m 03:57:49 22.54 Km\h Wilier IzoardXP
18/08/2015 Show to everybody Giretto sul Pordoi 23.66 Km 787 m 01:41:56 13.92 Km\h Wilier IzoardXP
14/08/2015 Show to everybody P.Giau 64.73 Km 1739 m 04:05:04 15.85 Km\h Wilier IzoardXP
12/08/2015 Show to everybody Falzarego,Valparola,Campolongo 50.44 Km 1253 m 02:57:57 17.01 Km\h Wilier IzoardXP
11/08/2015 Show to everybody Sellaronda da Arabba 51.42 Km 1610 m 03:34:43 14.37 Km\h Wilier IzoardXP
08/08/2015 Show to everybody Raduno S.Lorenzo 89.25 Km 491 m 03:27:44 25.78 Km\h Wilier IzoardXP
01/08/2015 Show to everybody Faggiola-Sambuca 143.57 Km 1799 m 06:28:44 22.16 Km\h Wilier IzoardXP
25/07/2015 Show to everybody Sassoleone-Valsalva 104.18 Km 1001 m 04:22:05 23.85 Km\h Wilier IzoardXP
19/07/2015 Show to everybody G.F. Tosco Romagnola e ritorno da Palazzuolo 130.27 Km 976 m 05:02:07 25.87 Km\h Wilier IzoardXP
18/07/2015 Show to everybody Raduno Fruges 61.5 Km 602 m 02:36:28 23.58 Km\h Wilier IzoardXP
12/07/2015 Show to everybody Raduno Solarolo 92.23 Km 954 m 03:51:26 23.91 Km\h Wilier IzoardXP
05/07/2015 Show to everybody Percorso medio P.Bizantino 122.5 Km 484 m 04:21:59 28.05 Km\h Wilier IzoardXP
04/07/2015 Show to everybody Raduno Alfonsine 56.55 Km 14 m 01:53:27 29.91 Km\h Wilier IzoardXP
28/06/2015 Show to everybody Raduno S.Lucia-Fratta Terme 134.78 Km 717 m 04:52:22 27.66 Km\h Bianchi ViaNirone
27/06/2015 Show to everybody Raduno Lugo 103.61 Km 851 m 04:05:04 25.37 Km\h Wilier IzoardXP
21/06/2015 Show to everybody G.F. Uisp Ravenna (perc. lungo) 147.82 Km 1820 m 06:11:27 23.88 Km\h Wilier IzoardXP
20/06/2015 Show to everybody Raduno Riolo Terme 87.51 Km 734 m 03:28:51 25.14 Km\h Wilier IzoardXP
14/06/2015 Show to everybody G.F. Medicina (perc. lungo) 136.04 Km 2059 m 05:39:49 24.02 Km\h Wilier IzoardXP
13/06/2015 Show to everybody Raduno Placci 90.21 Km 621 m 03:28:24 25.97 Km\h Wilier IzoardXP
07/06/2015 Show to everybody G.F. E.Baldini (perc. medio) 108.73 Km 1321 m 04:15:45 25.51 Km\h Wilier IzoardXP
06/06/2015 Show to everybody Raduno Bagnacavallo 86.63 Km 403 m 03:07:26 27.73 Km\h Wilier IzoardXP
02/06/2015 Show to everybody Raduno Cefla Imola 83.29 Km 671 m 03:13:50 25.78 Km\h Wilier IzoardXP
01/06/2015 Show to everybody Palazzuolo-P.Sambuca 129.16 Km 1377 m 05:10:54 24.93 Km\h Wilier IzoardXP
30/05/2015 Show to everybody Bologna-S.Luca 109.87 Km 428 m 04:32:59 24.15 Km\h Wilier IzoardXP
24/05/2015 Show to everybody Novecolli (perc. 130km) 132.64 Km 2738 m 05:44:21 23.11 Km\h Wilier IzoardXP
20/05/2015 Show to everybody Tremonti per il Giro 2 22.12 Km 44 m 00:47:21 28.02 Km\h Bianchi ViaNirone
20/05/2015 Show to everybody Tremonti per il Giro 1 21.22 Km 247 m 00:56:11 22.66 Km\h Bianchi ViaNirone
17/05/2015 Show to everybody G.F. Valle Santerno (perc. medio) 142.76 Km 1383 m 05:38:25 25.31 Km\h Wilier IzoardXP
16/05/2015 Show to everybody Raduno Lavezzola 47.66 Km 19 m 01:41:37 28.14 Km\h Bianchi ViaNirone
10/05/2015 Show to everybody Giro di Romagna (perc. lungo) 174.35 Km 2280 m 07:20:58 23.72 Km\h Wilier IzoardXP
09/05/2015 Show to everybody Raduno Borgo Tuliero 95.6 Km 690 m 03:47:15 25.24 Km\h Wilier IzoardXP
03/05/2015 Show to everybody G.F. Valle Senio (perc. lungo) 143.51 Km 2119 m 06:23:25 22.46 Km\h Wilier IzoardXP
02/05/2015 Show to everybody Raduno Bagnacavallo 85.63 Km 472 m 03:10:12 27.01 Km\h Wilier IzoardXP
01/05/2015 Show to everybody Dieci Colli (perc. medio) 84.93 Km 1390 m 03:36:40 23.52 Km\h Wilier IzoardXP
26/04/2015 Show to everybody Avis Faenza (perc. medio) 91.07 Km 1328 m 03:47:23 24.03 Km\h Wilier IzoardXP
25/04/2015 Show to everybody Raduno Marzeno-Tredozio 110.51 Km 580 m 03:56:52 27.99 Km\h Wilier IzoardXP
19/04/2015 Show to everybody Raduno Pontesanto-Sassoleone-Casola 113.47 Km 1347 m 04:50:54 23.41 Km\h Wilier IzoardXP
18/04/2015 Show to everybody Raduno Granarolo-Monticino-M.Albano 101.89 Km 920 m 04:07:52 24.66 Km\h Wilier IzoardXP
12/04/2015 Show to everybody Raduno Imola-CastelDelRio-Bordona 92.35 Km 677 m 03:42:02 24.96 Km\h Wilier IzoardXP
11/04/2015 Show to everybody Mediofondo Cotignola (perc. lungo) 129.33 Km 1489 m 05:39:04 22.89 Km\h Wilier IzoardXP
06/04/2015 Show to everybody Raduno Imola-Fontanelice-Casola-Palazzuolo 122.7 Km 1167 m 05:01:54 24.38 Km\h Wilier IzoardXP
29/03/2015 Show to everybody Raduno S.Lucia-Castrocaro 116.71 Km 598 m 04:23:54 26.53 Km\h Wilier IzoardXP
28/03/2015 Show to everybody Raduno Imola-Sassoleone-P.Raticosa 128.84 Km 1604 m 05:38:20 22.85 Km\h Wilier IzoardXP
21/03/2015 Show to everybody Raduno Somec-Coralli-Riolo 66.56 Km 262 m 02:25:19 27.48 Km\h Bianchi ViaNirone
15/03/2015 Show to everybody Raduno CastelGuelfo-S.Lazzaro 80.03 Km 79 m 02:54:08 27.58 Km\h Bianchi ViaNirone
14/03/2015 Show to everybody Raduno Faenza-M.te Trebbio-M.te Casale 104.11 Km 1224 m 04:36:15 22.61 Km\h Wilier IzoardXP
08/03/2015 Show to everybody Raduno Prada-Casale-Monticino 108.41 Km 952 m 04:30:28 24.05 Km\h Wilier IzoardXP
07/03/2015 Show to everybody Raduno Monte del Re-Sassoleone-Bordona 112.25 Km 1039 m 04:46:32 23.51 Km\h Wilier IzoardXP
01/03/2015 Show to everybody Raduno Reda-M.Carla-Monticino 92.85 Km 602 m 03:39:46 25.35 Km\h Bianchi ViaNirone
28/02/2015 Show to everybody Raduno Faenza-Marradi 133.04 Km 875 m 05:09:55 25.76 Km\h Bianchi ViaNirone
21/02/2015 Show to everybody Zattaglia-Casola 81.41 Km 723 m 03:16:45 24.83 Km\h Bianchi ViaNirone
15/02/2015 Show to everybody Raduno Cicloclub Estense 50.18 Km 56 m 01:44:42 28.76 Km\h Bianchi ViaNirone
14/02/2015 Show to everybody Raduno Uisp - Castrocaro 105.68 Km 511 m 04:01:49 26.22 Km\h Bianchi ViaNirone
08/02/2015 Show to everybody Fontanelice 65.88 Km 268 m 02:28:54 26.55 Km\h Bianchi ViaNirone
31/01/2015 Show to everybody Fontanelice-Casola 82.24 Km 677 m 03:21:49 24.45 Km\h Bianchi ViaNirone
25/01/2015 Show to everybody Bertinoro 114.21 Km 289 m 04:25:53 25.77 Km\h Bianchi ViaNirone
24/01/2015 Show to everybody Fontanelice-Sassoleone-Bordona 93.61 Km 835 m 03:53:59 24 Km\h Bianchi ViaNirone
18/01/2015 Show to everybody Brisighella-M.Coralli 78.91 Km 507 m 03:07:26 25.26 Km\h Bianchi ViaNirone
11/01/2015 Show to everybody Riolo Terme 63.95 Km 349 m 02:36:02 24.59 Km\h Bianchi ViaNirone
02/01/2015 Show to everybody Castel Del Rio 81.16 Km 379 m 03:15:54 24.86 Km\h Bianchi ViaNirone
13/12/2014 Show to everybody Fontanelice-Casola 83.46 Km 678 m 03:38:51 22.88 Km\h Bianchi ViaNirone
08/12/2014 Show to everybody Riolo-Brisighella-Coralli 78.13 Km 598 m 03:15:22 23.99 Km\h Wilier IzoardXP
06/12/2014 Show to everybody Monterenzio 108.5 Km 365 m 04:01:20 26.98 Km\h Wilier IzoardXP
29/11/2014 Show to everybody Modigliana 92.57 Km 384 m 03:37:18 25.56 Km\h Wilier IzoardXP
23/11/2014 Show to everybody Casola-Fontanelice 82.17 Km 728 m 03:29:08 23.57 Km\h Wilier IzoardXP
22/11/2014 Show to everybody Firenzuola 125.05 Km 899 m 05:06:53 24.45 Km\h Wilier IzoardXP
15/11/2014 Show to everybody CastelDelRio-Bordona 90.6 Km 646 m 03:42:17 24.46 Km\h Bianchi ViaNirone
02/11/2014 Show to everybody Palazzuolo 111.25 Km 786 m 04:19:24 25.73 Km\h Wilier IzoardXP
26/10/2014 Show to everybody Raduno Lugo-Coralli-M.Albano 99.03 Km 841 m 04:05:59 24.16 Km\h Wilier IzoardXP
19/10/2014 Show to everybody Raduno Imola-Cotignola 43.62 Km 64 m 01:36:32 27.11 Km\h Wilier IzoardXP
19/10/2014 Show to everybody Cotignola 15.75 Km 26 m 00:32:11 29.36 Km\h Wilier IzoardXP
18/10/2014 Show to everybody Raduno Granarolo-Brisighella-Monticino 81.46 Km 448 m 03:09:52 25.74 Km\h Wilier IzoardXP
12/10/2014 Show to everybody Gita sociale Lugo-Comacchio-Lugo 107.42 Km 66 m 03:51:16 27.87 Km\h Wilier IzoardXP
11/10/2014 Show to everybody Raduno S.Agata-Palazzuolo 122.39 Km 914 m 04:42:05 26.03 Km\h Wilier IzoardXP
05/10/2014 Show to everybody Gita con la squadra a Bologna-S.Luca 112.41 Km 692 m 04:38:23 24.23 Km\h Wilier IzoardXP
04/10/2014 Show to everybody Raduno Lugo-Modigliana-M.Casale 97.85 Km 708 m 04:03:17 24.13 Km\h Wilier IzoardXP
28/09/2014 Show to everybody Raduno Imola-Bordona-Sassoleone 94.33 Km 789 m 03:44:01 25.26 Km\h Bianchi ViaNirone
27/09/2014 Show to everybody Raduno Pieve Cesato-Monticino-M.Albano 131.2 Km 1180 m 05:31:05 23.78 Km\h Bianchi ViaNirone
21/09/2014 Show to everybody Raduno Imola 52.09 Km 321 m 02:10:10 24.01 Km\h Bianchi ViaNirone
14/09/2014 Show to everybody Raduno Argenta 53.23 Km 39 m 01:57:20 27.22 Km\h Bianchi ViaNirone
13/09/2014 Show to everybody Raduno Imola-Riolo-Brisighella 87.62 Km 655 m 03:37:08 24.21 Km\h Bianchi ViaNirone
07/09/2014 Show to everybody Raduno C.S.Pietro-Sassoleone-Bordona 101.29 Km 666 m 03:57:56 25.54 Km\h Bianchi ViaNirone
06/09/2014 Show to everybody Raduno Uisp Alfonsine - Casalborsetti 109.41 Km 42 m 03:57:57 27.59 Km\h Bianchi ViaNirone
31/08/2014 Show to everybody Marradi-Casaglia-Sambuca 147.42 Km 1493 m 06:10:50 23.85 Km\h Wilier IzoardXP
30/08/2014 Show to everybody Raduno Uisp-Fontanelice-Casola 97.01 Km 678 m 04:04:13 23.83 Km\h Wilier IzoardXP
24/08/2014 Show to everybody Raduno Uisp-M.Albano-Misileo 112.88 Km 1146 m 04:50:41 23.3 Km\h Wilier IzoardXP
21/08/2014 Show to everybody M.Trebbio-M.Chioda 129.32 Km 1273 m 05:33:30 23.26 Km\h Wilier IzoardXP
17/08/2014 Show to everybody Palazzuolo-P.Sambuca 130.76 Km 1326 m 05:33:20 23.54 Km\h Bianchi ViaNirone
16/08/2014 Show to everybody Prugno-M.Albano 89.36 Km 894 m 03:47:37 23.56 Km\h Bianchi ViaNirone
13/08/2014 Show to everybody Fontanelice-Sassoleone 93.47 Km 816 m 03:50:36 24.32 Km\h Bianchi ViaNirone
12/08/2014 Show to everybody Riolo Terme + foratura e caduta 59.71 Km 229 m 02:23:38 24.94 Km\h Bianchi ViaNirone
10/08/2014 Show to everybody Raduno Riolo-Prugno 82.83 Km 668 m 03:16:44 25.26 Km\h Bianchi ViaNirone
09/08/2014 Show to everybody Raduno S.Lorenzo-M.Albano 97.32 Km 715 m 03:57:56 24.54 Km\h Wilier IzoardXP
08/08/2014 Show to everybody Firenzuola-Passo Giogo 146.75 Km 1398 m 06:25:24 22.85 Km\h Wilier IzoardXP
02/08/2014 Show to everybody MonteGrappa 1 33.11 Km 1292 m 02:42:25 12.23 Km\h Wilier IzoardXP
02/08/2014 Show to everybody Monte Grappa 2 25.68 Km 15 m 00:48:36 31.7 Km\h Wilier IzoardXP
20/07/2014 Show to everybody Raduno Solarolo-Albano-Palazzuolo 120.41 Km 989 m 04:47:10 25.16 Km\h Wilier IzoardXP
19/07/2014 Show to everybody Fontanelice-Casola 87.07 Km 649 m 03:42:25 23.49 Km\h Wilier IzoardXP
12/07/2014 Show to everybody Faggiola 124.76 Km 1121 m 05:14:55 23.77 Km\h Bianchi ViaNirone
06/07/2014 Show to everybody Pedale Bizantino (perc. medio) 96.64 Km 426 m 03:41:50 26.14 Km\h Bianchi ViaNirone
05/07/2014 Show to everybody Palazzuolo-Monte Carnevale 122.54 Km 996 m 04:53:45 25.03 Km\h Bianchi ViaNirone
29/06/2014 Show to everybody Raduno Imola 57.88 Km 382 m 02:16:57 25.36 Km\h Bianchi ViaNirone
28/06/2014 Show to everybody Sassoleone-Valsalva 105.33 Km 1020 m 04:31:15 23.3 Km\h Bianchi ViaNirone
22/06/2014 Show to everybody G.F. Medicina (perc. medio) 108.17 Km 1301 m 04:08:31 26.12 Km\h Wilier IzoardXP
21/06/2014 Show to everybody Raduno Riolo Terme 96.77 Km 993 m 03:59:10 24.28 Km\h Bianchi ViaNirone
19/06/2014 Show to everybody Giro test bici 46.83 Km 97 m 01:39:36 28.21 Km\h Bianchi ViaNirone
14/06/2014 Show to everybody Raduno Placci 72.81 Km 198 m 02:41:57 26.98 Km\h Bianchi ViaNirone
08/06/2014 Show to everybody La Ercole Baldini (perc. medio) 109.5 Km 1358 m 04:18:42 25.4 Km\h Wilier IzoardXP
07/06/2014 Show to everybody Raduno Faenza 82.47 Km 537 m 03:13:42 25.55 Km\h Bianchi ViaNirone
02/06/2014 Show to everybody Raduno Cefla1 20.76 Km 38 m 00:46:32 26.77 Km\h Bianchi ViaNirone
02/06/2014 Show to everybody Raduno Cefla2 52.73 Km 246 m 01:56:24 27.18 Km\h Bianchi ViaNirone
01/06/2014 Show to everybody G.F. Bitone Bologna (perc. medio) 103.71 Km 1446 m 04:14:10 24.48 Km\h Wilier IzoardXP
31/05/2014 Show to everybody Raduno Bagnacavallo 107.14 Km 672 m 04:06:02 26.13 Km\h Bianchi ViaNirone
18/05/2014 Show to everybody Nove Colli (perc. medio) 131.9 Km 2278 m 05:32:52 23.78 Km\h Wilier IzoardXP
17/05/2014 Show to everybody Raduno Lavezzola 50.38 Km 24 m 01:51:05 27.21 Km\h Wilier IzoardXP
11/05/2014 Show to everybody Giro di Romagna (perc. lungo) 196.43 Km 2703 m 08:24:02 23.38 Km\h Wilier IzoardXP
10/05/2014 Show to everybody Raduno Faenza 95.98 Km 771 m 03:52:38 24.76 Km\h Wilier IzoardXP
04/05/2014 Show to everybody G.F. Valle Senio (perc. medio e d+ sballato) 137.45 Km 551 m 05:42:10 24.1 Km\h Wilier IzoardXP
03/05/2014 Show to everybody Raduno Imola 45.94 Km 201 m 01:47:31 25.64 Km\h Bianchi ViaNirone
01/05/2014 Show to everybody Dieci Colli (perc. medio) 82.72 Km 1411 m 03:15:02 25.45 Km\h Wilier IzoardXP
27/04/2014 Show to everybody G.F. Russi (perc. lungo) 139.73 Km 1963 m 05:54:08 23.67 Km\h Wilier IzoardXP
26/04/2014 Show to everybody Passeggiata in autodromo 51.24 Km 249 m 01:54:05 26.95 Km\h Bianchi ViaNirone
25/04/2014 Show to everybody M.F. Marzeno (perc. medio) 94.86 Km 1557 m 04:15:31 22.28 Km\h Wilier IzoardXP
23/04/2014 Show to everybody Palazzuolo-Carnevale-Marradi-Monticino 130.06 Km 1251 m 05:26:28 23.9 Km\h Wilier IzoardXP
19/04/2014 Show to everybody Raduno Pontesanto 69.69 Km 264 m 02:26:16 28.59 Km\h Bianchi ViaNirone
18/04/2014 Show to everybody Monte Albano-Palazzuolo-Passo Sambuca 139.13 Km 1612 m 05:52:20 23.69 Km\h Bianchi ViaNirone
13/04/2014 Show to everybody GF AvisFaenza (perc. medio) 91.21 Km 1347 m 03:48:22 23.96 Km\h Wilier IzoardXP
12/04/2014 Show to everybody Raduno Granarolo 106.58 Km 635 m 04:14:07 25.16 Km\h Bianchi ViaNirone
06/04/2014 Show to everybody Raduno Imola-Bordona-Raticosa-Futa 151.04 Km 1578 m 06:24:51 23.55 Km\h Bianchi ViaNirone
05/04/2014 Show to everybody Raduno Cotignola-Coralli-Riolo 84.62 Km 337 m 03:32:39 23.88 Km\h Wilier IzoardXP
30/03/2014 Show to everybody Raduno Somec-Chioda-Peschiera-Eremo-Monticino 168.27 Km 2142 m 07:41:29 21.88 Km\h Wilier IzoardXP
29/03/2014 Show to everybody Raduno Imola-Sassoleone-Bordona 94.96 Km 815 m 03:49:33 24.82 Km\h Bianchi ViaNirone
22/03/2014 Show to everybody Raduno Imola-Bordona-Sassoleone-Prugno 110.25 Km 1343 m 04:40:03 23.62 Km\h Wilier IzoardXP
16/03/2014 Show to everybody G.F. D.Cassani 86.39 Km 1461 m 03:44:27 23.09 Km\h Wilier IzoardXP
15/03/2014 Show to everybody Raduno Faenza 72.01 Km 298 m 02:40:10 26.97 Km\h Bianchi ViaNirone
09/03/2014 Show to everybody Modigliana-Brisighella-Coralli 107.34 Km 1017 m 04:40:01 23 Km\h Wilier IzoardXP
08/03/2014 Show to everybody Raduno Faenza-Coralli-Calbane-Beccugiano 130.17 Km 1226 m 05:38:05 23.1 Km\h Wilier IzoardXP
02/03/2014 Show to everybody Raduno Reda 74.1 Km 213 m 02:44:33 27.02 Km\h Bianchi ViaNirone
01/03/2014 Show to everybody Raduno Dozza 77.63 Km 352 m 02:58:18 26.12 Km\h Bianchi ViaNirone
23/02/2014 Show to everybody Raduno Cicloclub Estense 87.3 Km 53 m 03:19:20 26.28 Km\h Wilier IzoardXP
22/02/2014 Show to everybody Raduno Uisp Imola - Tossignano 66.21 Km 335 m 02:47:04 23.78 Km\h Wilier IzoardXP
16/02/2014 Show to everybody Raduno Faenza-Zattaglia-M.teAlbano 86.69 Km 758 m 03:53:04 22.32 Km\h Wilier IzoardXP
15/02/2014 Show to everybody Raduno Uisp Lugo Modigliana Brisighella 108.18 Km 744 m 04:48:11 22.52 Km\h Wilier IzoardXP
08/02/2014 Show to everybody Modigliana-Tredozio-Lutirano 120.09 Km 877 m 05:01:22 23.91 Km\h Bianchi ViaNirone
02/02/2014 Show to everybody Riolo-Brisighella 83.41 Km 457 m 03:29:45 23.86 Km\h Bianchi ViaNirone
26/01/2014 Show to everybody Coralli-Riolo 69.77 Km 292 m 02:48:26 24.85 Km\h Bianchi ViaNirone
25/01/2014 Show to everybody Firenzuola 124.73 Km 846 m 05:13:10 23.9 Km\h Bianchi ViaNirone
12/01/2014 Show to everybody Fontanelice-Prugno-Misileo 101.66 Km 861 m 04:15:11 23.9 Km\h Bianchi ViaNirone
06/01/2014 Show to everybody Fontanelice 68.17 Km 252 m 02:42:48 25.12 Km\h Bianchi ViaNirone
03/01/2014 Show to everybody Prima uscita 2014 - Tossignano 64.09 Km 337 m 02:46:44 23.06 Km\h Wilier IzoardXP
28/12/2013 Show to everybody Palazzuolo-Passo Carnevale 119.17 Km 990 m 05:18:37 22.44 Km\h Wilier IzoardXP
22/12/2013 Show to everybody CasolaValsenio 84.91 Km 427 m 03:34:02 23.8 Km\h Wilier IzoardXP
21/12/2013 Show to everybody Bertinoro 112.93 Km 270 m 04:33:13 24.8 Km\h Bianchi ViaNirone
14/12/2013 Show to everybody CastelDelRio-Coniale 103.57 Km 620 m 04:21:19 23.78 Km\h Bianchi ViaNirone
08/12/2013 Show to everybody Castrocaro 91.01 Km 213 m 03:38:16 25.02 Km\h Wilier IzoardXP
07/12/2013 Show to everybody Riolo-Brisighella-Marzeno 86.25 Km 625 m 03:47:34 22.74 Km\h Wilier IzoardXP
01/12/2013 Show to everybody CastelDelRio 82.12 Km 414 m 03:27:13 23.78 Km\h Wilier IzoardXP
30/11/2013 Show to everybody Palazzuolo 112.77 Km 824 m 04:47:27 23.54 Km\h Wilier IzoardXP
17/11/2013 Show to everybody Valle Idice - Monterenzio 127.03 Km 512 m 04:46:27 26.61 Km\h Bianchi ViaNirone
10/11/2013 Show to everybody Casola Valsenio 88.47 Km 498 m 03:31:48 25.06 Km\h Bianchi ViaNirone
02/11/2013 Show to everybody CastelDelRio-Valsalva 92.64 Km 559 m 03:40:47 25.17 Km\h Bianchi ViaNirone
27/10/2013 Show to everybody Raduno Faenza-Coralli-Albano-Prugno 102.06 Km 1097 m 04:22:14 23.35 Km\h Wilier IzoardXP
26/10/2013 Show to everybody Raduno Imola 53.38 Km 65 m 01:58:02 27.13 Km\h Wilier IzoardXP
20/10/2013 Show to everybody Raduno Uisp Lugo 95.03 Km 418 m 03:30:06 27.14 Km\h Wilier IzoardXP
19/10/2013 Show to everybody Raduno Granarolo-Coralli-Albano 106.11 Km 804 m 04:17:00 24.77 Km\h Wilier IzoardXP
13/10/2013 Show to everybody Raduno Toscanella 80.71 Km 134 m 03:00:21 26.85 Km\h Bianchi ViaNirone
12/10/2013 Show to everybody CastelDelRio-Bordona 91.01 Km 622 m 03:38:23 25 Km\h Bianchi ViaNirone
28/09/2013 Show to everybody Settembre2013_9 82.67 Km 671 m 03:22:53 24.45 Km\h Bianchi ViaNirone
22/09/2013 Show to everybody G.F. Roberto Conti (perc. corto) 101.85 Km 1123 m 04:01:50 25.27 Km\h Bianchi ViaNirone
21/09/2013 Show to everybody Raduno Pieve Cesato 83.75 Km 255 m 03:15:19 25.73 Km\h Bianchi ViaNirone
15/09/2013 Show to everybody Settembre2013_6 86.2 Km 643 m 03:25:23 25.18 Km\h Bianchi ViaNirone

Show previous years trainings
This user's bikes.
Bianchi ViaNirone 129 11101.23 Km 67420 m 442:53:19 25.26 Km/h
Wilier IzoardXP 317 29858.39 Km 249272 m 838:59:59 24.47 Km/h
Wilier GTR Team 86 7328.11 Km 57315 m 298:36:18 24.72 Km/h

662 points
Kilometers
0
Vertical gain
0
Rank:26

Watch ranking »

 

Bike name

Delete this bike?

Now you follow this users and you can compare your trainings

If you stop following this users you will not be able to compare your trainings with his


bdc-forum.it | 2012-2019 Training Camp v.1.0.15